Hillsboro, Wisconsin
Current Conditions -  °F | °C
As of 10:35 AM on Saturday 22 Nov 2014 (Local Time) from KC35 Reporting Station
Haze Haze  
Wind Chill: 31°   Ceiling: 300
Heat Index: 36°   Visibility: 1.5mi
Dew Point: 35°   Wind: 6mph
Humidity: 99%   Direction: 210°SSW
Pressure: 29.84"   Gusts: NA
Location:  43.65°N, 90.34°W
Report Text: KC35 221635Z AUTO 21005KT 1 1/2SM BR OVC003 02/02 A2984 RMK AO2 T00210019
Loading
Personal Weather Stations






























Interactive Weather Map New forecast layout! Learn more

10-Day Weather Forecast

Advertisements
Track Severe Weather on mobile